sensor_id;sensor_type;location;lat;lon;timestamp;temperature;humidity
36594;DHT22;22603;47.900;8.146;2023-04-06T00:00:02;-2.10;99.90
36594;DHT22;22603;47.900;8.146;2023-04-06T00:02:50;-2.10;99.90
36594;DHT22;22603;47.900;8.146;2023-04-06T00:05:39;-2.20;99.90
36594;DHT22;22603;47.900;8.146;2023-04-06T00:08:26;-2.20;99.90
36594;DHT22;22603;47.900;8.146;2023-04-06T00:11:13;-2.20;99.90
36594;DHT22;22603;47.900;8.146;2023-04-06T00:14:00;-2.20;99.90
36594;DHT22;22603;47.900;8.146;2023-04-06T00:16:47;-2.20;99.90
36594;DHT22;22603;47.900;8.146;2023-04-06T00:19:34;-2.20;99.90
36594;DHT22;22603;47.900;8.146;2023-04-06T00:22:22;-2.30;99.90
36594;DHT22;22603;47.900;8.146;2023-04-06T00:25:09;-2.30;99.90
36594;DHT22;22603;47.900;8.146;2023-04-06T00:27:57;-2.30;99.90
36594;DHT22;22603;47.900;8.146;2023-04-06T00:30:43;-2.40;99.90
36594;DHT22;22603;47.900;8.146;2023-04-06T00:33:30;-2.40;99.90
36594;DHT22;22603;47.900;8.146;2023-04-06T00:36:17;-2.40;99.90
36594;DHT22;22603;47.900;8.146;2023-04-06T00:39:05;-2.40;99.90
36594;DHT22;22603;47.900;8.146;2023-04-06T00:41:53;-2.40;99.90
36594;DHT22;22603;47.900;8.146;2023-04-06T00:44:40;-2.40;99.90
36594;DHT22;22603;47.900;8.146;2023-04-06T00:47:28;-2.40;99.90
36594;DHT22;22603;47.900;8.146;2023-04-06T00:50:15;-2.50;99.90
36594;DHT22;22603;47.900;8.146;2023-04-06T00:53:03;-2.50;99.90
36594;DHT22;22603;47.900;8.146;2023-04-06T00:55:52;-2.60;99.90
36594;DHT22;22603;47.900;8.146;2023-04-06T00:58:39;-2.50;99.90
36594;DHT22;22603;47.900;8.146;2023-04-06T01:01:26;-2.60;99.90
36594;DHT22;22603;47.900;8.146;2023-04-06T01:04:14;-2.60;99.90
36594;DHT22;22603;47.900;8.146;2023-04-06T01:07:01;-2.60;99.90
36594;DHT22;22603;47.900;8.146;2023-04-06T01:09:48;-2.70;99.90
36594;DHT22;22603;47.900;8.146;2023-04-06T01:12:37;-2.70;99.90
36594;DHT22;22603;47.900;8.146;2023-04-06T01:15:25;-2.70;99.90
36594;DHT22;22603;47.900;8.146;2023-04-06T01:18:12;-2.70;99.90
36594;DHT22;22603;47.900;8.146;2023-04-06T01:20:59;-2.70;99.90
36594;DHT22;22603;47.900;8.146;2023-04-06T01:23:48;-2.80;99.90
36594;DHT22;22603;47.900;8.146;2023-04-06T01:26:37;-2.80;99.90
36594;DHT22;22603;47.900;8.146;2023-04-06T01:29:24;-2.80;99.90
36594;DHT22;22603;47.900;8.146;2023-04-06T01:32:11;-2.90;99.90
36594;DHT22;22603;47.900;8.146;2023-04-06T01:34:58;-2.80;99.90
36594;DHT22;22603;47.900;8.146;2023-04-06T01:37:45;-2.90;99.90
36594;DHT22;22603;47.900;8.146;2023-04-06T01:40:33;-3.00;99.90
36594;DHT22;22603;47.900;8.146;2023-04-06T01:43:20;-3.00;99.90
36594;DHT22;22603;47.900;8.146;2023-04-06T01:46:07;-3.00;99.90
36594;DHT22;22603;47.900;8.146;2023-04-06T01:48:54;-3.00;99.90
36594;DHT22;22603;47.900;8.146;2023-04-06T01:51:41;-3.00;99.90
36594;DHT22;22603;47.900;8.146;2023-04-06T01:54:28;-3.10;99.90
36594;DHT22;22603;47.900;8.146;2023-04-06T01:57:16;-3.10;99.90
36594;DHT22;22603;47.900;8.146;2023-04-06T02:00:04;-3.10;99.90
36594;DHT22;22603;47.900;8.146;2023-04-06T02:02:51;-3.10;99.90
36594;DHT22;22603;47.900;8.146;2023-04-06T02:05:38;-3.20;99.90
36594;DHT22;22603;47.900;8.146;2023-04-06T02:08:26;-3.20;99.90
36594;DHT22;22603;47.900;8.146;2023-04-06T02:11:13;-3.30;99.90
36594;DHT22;22603;47.900;8.146;2023-04-06T02:14:01;-3.30;99.90
36594;DHT22;22603;47.900;8.146;2023-04-06T02:16:49;-3.40;99.90
36594;DHT22;22603;47.900;8.146;2023-04-06T02:19:36;-3.30;99.90
36594;DHT22;22603;47.900;8.146;2023-04-06T02:22:22;-3.30;99.90
36594;DHT22;22603;47.900;8.146;2023-04-06T02:25:10;-3.30;99.90
36594;DHT22;22603;47.900;8.146;2023-04-06T02:27:57;-3.30;99.90
36594;DHT22;22603;47.900;8.146;2023-04-06T02:30:45;-3.30;99.90
36594;DHT22;22603;47.900;8.146;2023-04-06T02:33:32;-3.40;99.90
36594;DHT22;22603;47.900;8.146;2023-04-06T02:36:19;-3.40;99.90
36594;DHT22;22603;47.900;8.146;2023-04-06T02:39:06;-3.40;99.90
36594;DHT22;22603;47.900;8.146;2023-04-06T02:41:54;-3.50;99.90
36594;DHT22;22603;47.900;8.146;2023-04-06T02:44:42;-3.50;99.90
36594;DHT22;22603;47.900;8.146;2023-04-06T02:47:31;-3.50;99.90
36594;DHT22;22603;47.900;8.146;2023-04-06T02:50:18;-3.50;99.90
36594;DHT22;22603;47.900;8.146;2023-04-06T02:53:05;-3.50;99.90
36594;DHT22;22603;47.900;8.146;2023-04-06T02:55:52;-3.60;99.90
36594;DHT22;22603;47.900;8.146;2023-04-06T02:58:39;-3.60;99.90
36594;DHT22;22603;47.900;8.146;2023-04-06T03:01:26;-3.60;99.90
36594;DHT22;22603;47.900;8.146;2023-04-06T03:04:15;-3.60;99.90
36594;DHT22;22603;47.900;8.146;2023-04-06T03:07:01;-3.70;99.90
36594;DHT22;22603;47.900;8.146;2023-04-06T03:09:48;-3.70;99.90
36594;DHT22;22603;47.900;8.146;2023-04-06T03:12:35;-3.70;99.90
36594;DHT22;22603;47.900;8.146;2023-04-06T03:15:22;-3.70;99.90
36594;DHT22;22603;47.900;8.146;2023-04-06T03:18:08;-3.70;99.90
36594;DHT22;22603;47.900;8.146;2023-04-06T03:20:57;-3.70;99.90
36594;DHT22;22603;47.900;8.146;2023-04-06T03:23:45;-3.70;99.90
36594;DHT22;22603;47.900;8.146;2023-04-06T03:26:35;-3.80;99.90
36594;DHT22;22603;47.900;8.146;2023-04-06T03:29:22;-3.80;99.90
36594;DHT22;22603;47.900;8.146;2023-04-06T03:32:09;-3.80;99.90
36594;DHT22;22603;47.900;8.146;2023-04-06T03:34:57;-3.90;99.90
36594;DHT22;22603;47.900;8.146;2023-04-06T03:37:45;-3.90;99.90
36594;DHT22;22603;47.900;8.146;2023-04-06T03:40:32;-4.00;99.90
36594;DHT22;22603;47.900;8.146;2023-04-06T03:43:19;-3.90;99.90
36594;DHT22;22603;47.900;8.146;2023-04-06T03:46:07;-4.00;99.90
36594;DHT22;22603;47.900;8.146;2023-04-06T03:48:54;-4.00;99.90
36594;DHT22;22603;47.900;8.146;2023-04-06T03:51:41;-4.00;99.90
36594;DHT22;22603;47.900;8.146;2023-04-06T03:54:29;-4.00;99.90
36594;DHT22;22603;47.900;8.146;2023-04-06T03:57:16;-4.00;99.90
36594;DHT22;22603;47.900;8.146;2023-04-06T04:00:04;-4.10;99.90
36594;DHT22;22603;47.900;8.146;2023-04-06T04:02:51;-4.10;99.90
36594;DHT22;22603;47.900;8.146;2023-04-06T04:05:38;-4.10;99.90
36594;DHT22;22603;47.900;8.146;2023-04-06T04:08:25;-4.10;99.90
36594;DHT22;22603;47.900;8.146;2023-04-06T04:11:14;-4.10;99.90
36594;DHT22;22603;47.900;8.146;2023-04-06T04:14:01;-4.10;99.90
36594;DHT22;22603;47.900;8.146;2023-04-06T04:16:49;-4.10;99.90
36594;DHT22;22603;47.900;8.146;2023-04-06T04:19:36;-4.10;99.90
36594;DHT22;22603;47.900;8.146;2023-04-06T04:22:23;-4.10;99.90
36594;DHT22;22603;47.900;8.146;2023-04-06T04:25:10;-4.20;99.90
36594;DHT22;22603;47.900;8.146;2023-04-06T04:27:58;-4.10;99.90
36594;DHT22;22603;47.900;8.146;2023-04-06T04:30:46;-4.10;99.90
36594;DHT22;22603;47.900;8.146;2023-04-06T04:33:33;-4.10;99.90
36594;DHT22;22603;47.900;8.146;2023-04-06T04:36:20;-4.20;99.90
36594;DHT22;22603;47.900;8.146;2023-04-06T04:39:08;-4.20;99.90
36594;DHT22;22603;47.900;8.146;2023-04-06T04:41:55;-4.20;99.90
36594;DHT22;22603;47.900;8.146;2023-04-06T04:44:45;-4.20;99.90
36594;DHT22;22603;47.900;8.146;2023-04-06T04:47:32;-4.20;99.90
36594;DHT22;22603;47.900;8.146;2023-04-06T04:50:19;-4.20;99.90
36594;DHT22;22603;47.900;8.146;2023-04-06T04:53:06;-4.20;99.90
36594;DHT22;22603;47.900;8.146;2023-04-06T04:55:54;-4.30;99.90
36594;DHT22;22603;47.900;8.146;2023-04-06T04:58:41;-4.20;99.90
36594;DHT22;22603;47.900;8.146;2023-04-06T05:01:29;-4.20;99.90
36594;DHT22;22603;47.900;8.146;2023-04-06T05:04:32;-4.20;99.90
36594;DHT22;22603;47.900;8.146;2023-04-06T05:07:19;-4.30;99.90
36594;DHT22;22603;47.900;8.146;2023-04-06T05:10:07;-4.20;99.90
36594;DHT22;22603;47.900;8.146;2023-04-06T05:12:54;-4.20;99.90
36594;DHT22;22603;47.900;8.146;2023-04-06T05:15:41;-4.10;99.90
36594;DHT22;22603;47.900;8.146;2023-04-06T05:18:30;-4.20;99.90
36594;DHT22;22603;47.900;8.146;2023-04-06T05:21:18;-4.10;99.90
36594;DHT22;22603;47.900;8.146;2023-04-06T05:24:06;-4.10;99.90
36594;DHT22;22603;47.900;8.146;2023-04-06T05:26:52;-4.10;99.90
36594;DHT22;22603;47.900;8.146;2023-04-06T05:29:40;-4.10;99.90
36594;DHT22;22603;47.900;8.146;2023-04-06T05:32:27;-4.00;99.90
36594;DHT22;22603;47.900;8.146;2023-04-06T05:35:16;-4.00;99.90
36594;DHT22;22603;47.900;8.146;2023-04-06T05:38:05;-3.90;99.90
36594;DHT22;22603;47.900;8.146;2023-04-06T05:40:52;-4.00;99.90
36594;DHT22;22603;47.900;8.146;2023-04-06T05:43:39;-3.90;99.90
36594;DHT22;22603;47.900;8.146;2023-04-06T05:46:25;-3.80;99.90
36594;DHT22;22603;47.900;8.146;2023-04-06T05:49:12;-3.80;99.90
36594;DHT22;22603;47.900;8.146;2023-04-06T05:52:01;-3.70;99.90
36594;DHT22;22603;47.900;8.146;2023-04-06T05:54:49;-3.60;99.90
36594;DHT22;22603;47.900;8.146;2023-04-06T05:57:36;-3.50;99.90
36594;DHT22;22603;47.900;8.146;2023-04-06T06:00:23;-3.40;99.90
36594;DHT22;22603;47.900;8.146;2023-04-06T06:03:10;-3.30;99.90
36594;DHT22;22603;47.900;8.146;2023-04-06T06:06:00;-3.20;99.90
36594;DHT22;22603;47.900;8.146;2023-04-06T06:08:51;-3.10;99.90
36594;DHT22;22603;47.900;8.146;2023-04-06T06:11:38;-3.00;99.90
36594;DHT22;22603;47.900;8.146;2023-04-06T06:14:26;-2.90;99.90
36594;DHT22;22603;47.900;8.146;2023-04-06T06:17:14;-2.80;99.90
36594;DHT22;22603;47.900;8.146;2023-04-06T06:20:01;-2.70;99.90
36594;DHT22;22603;47.900;8.146;2023-04-06T06:22:48;-2.60;99.90
36594;DHT22;22603;47.900;8.146;2023-04-06T06:25:36;-2.40;99.90
36594;DHT22;22603;47.900;8.146;2023-04-06T06:28:24;-2.30;99.90
36594;DHT22;22603;47.900;8.146;2023-04-06T06:31:11;-2.10;99.90
36594;DHT22;22603;47.900;8.146;2023-04-06T06:33:59;-2.00;99.90
36594;DHT22;22603;47.900;8.146;2023-04-06T06:36:45;-1.80;99.90
36594;DHT22;22603;47.900;8.146;2023-04-06T06:39:36;-1.70;99.90
36594;DHT22;22603;47.900;8.146;2023-04-06T06:42:24;-1.50;99.90
36594;DHT22;22603;47.900;8.146;2023-04-06T06:45:11;-1.30;99.90
36594;DHT22;22603;47.900;8.146;2023-04-06T06:47:58;-1.20;99.90
36594;DHT22;22603;47.900;8.146;2023-04-06T06:50:47;-0.40;99.90
36594;DHT22;22603;47.900;8.146;2023-04-06T06:53:35;0.30;99.90
36594;DHT22;22603;47.900;8.146;2023-04-06T06:56:22;1.20;99.90
36594;DHT22;22603;47.900;8.146;2023-04-06T06:59:10;1.60;99.90
36594;DHT22;22603;47.900;8.146;2023-04-06T07:01:57;2.20;99.90
36594;DHT22;22603;47.900;8.146;2023-04-06T07:04:47;2.40;99.90
36594;DHT22;22603;47.900;8.146;2023-04-06T07:07:35;2.80;99.90
36594;DHT22;22603;47.900;8.146;2023-04-06T07:10:22;3.50;99.90
36594;DHT22;22603;47.900;8.146;2023-04-06T07:13:09;3.80;99.90
36594;DHT22;22603;47.900;8.146;2023-04-06T07:15:57;4.20;99.90
36594;DHT22;22603;47.900;8.146;2023-04-06T07:18:44;3.80;99.90
36594;DHT22;22603;47.900;8.146;2023-04-06T07:21:31;4.00;99.90
36594;DHT22;22603;47.900;8.146;2023-04-06T07:24:18;4.60;99.90
36594;DHT22;22603;47.900;8.146;2023-04-06T07:27:05;5.10;99.90
36594;DHT22;22603;47.900;8.146;2023-04-06T07:29:53;5.90;99.90
36594;DHT22;22603;47.900;8.146;2023-04-06T07:32:41;5.60;99.90
36594;DHT22;22603;47.900;8.146;2023-04-06T07:35:28;5.40;99.90
36594;DHT22;22603;47.900;8.146;2023-04-06T07:38:17;6.00;99.90
36594;DHT22;22603;47.900;8.146;2023-04-06T07:41:05;6.00;99.90
36594;DHT22;22603;47.900;8.146;2023-04-06T07:43:52;6.00;99.90
36594;DHT22;22603;47.900;8.146;2023-04-06T07:46:38;6.20;99.90
36594;DHT22;22603;47.900;8.146;2023-04-06T07:49:30;6.70;99.90
36594;DHT22;22603;47.900;8.146;2023-04-06T07:52:20;6.90;99.90
36594;DHT22;22603;47.900;8.146;2023-04-06T07:55:08;7.50;99.90
36594;DHT22;22603;47.900;8.146;2023-04-06T07:57:55;7.70;99.90
36594;DHT22;22603;47.900;8.146;2023-04-06T08:00:43;8.70;99.90
36594;DHT22;22603;47.900;8.146;2023-04-06T08:03:30;10.60;99.90
36594;DHT22;22603;47.900;8.146;2023-04-06T08:06:21;11.40;99.90
36594;DHT22;22603;47.900;8.146;2023-04-06T08:09:12;11.00;99.90
36594;DHT22;22603;47.900;8.146;2023-04-06T08:12:00;10.90;99.90
36594;DHT22;22603;47.900;8.146;2023-04-06T08:14:54;10.90;99.90
36594;DHT22;22603;47.900;8.146;2023-04-06T08:17:42;9.70;99.90
36594;DHT22;22603;47.900;8.146;2023-04-06T08:20:29;8.80;99.90
36594;DHT22;22603;47.900;8.146;2023-04-06T08:23:18;9.20;99.90
36594;DHT22;22603;47.900;8.146;2023-04-06T08:26:08;10.50;99.90
36594;DHT22;22603;47.900;8.146;2023-04-06T08:28:55;11.50;99.90
36594;DHT22;22603;47.900;8.146;2023-04-06T08:31:42;11.60;99.90
36594;DHT22;22603;47.900;8.146;2023-04-06T08:34:29;13.70;99.90
36594;DHT22;22603;47.900;8.146;2023-04-06T08:37:21;13.50;99.90
36594;DHT22;22603;47.900;8.146;2023-04-06T08:40:11;13.70;99.90
36594;DHT22;22603;47.900;8.146;2023-04-06T08:43:00;14.50;99.90
36594;DHT22;22603;47.900;8.146;2023-04-06T08:45:48;15.50;99.90
36594;DHT22;22603;47.900;8.146;2023-04-06T08:48:36;14.80;99.90
36594;DHT22;22603;47.900;8.146;2023-04-06T08:51:24;15.80;99.90
36594;DHT22;22603;47.900;8.146;2023-04-06T08:54:12;15.90;99.90
36594;DHT22;22603;47.900;8.146;2023-04-06T08:57:01;16.30;99.90
36594;DHT22;22603;47.900;8.146;2023-04-06T08:59:49;16.00;99.90
36594;DHT22;22603;47.900;8.146;2023-04-06T09:02:39;16.60;99.90
36594;DHT22;22603;47.900;8.146;2023-04-06T09:05:29;16.60;99.90
36594;DHT22;22603;47.900;8.146;2023-04-06T09:08:16;16.30;99.90
36594;DHT22;22603;47.900;8.146;2023-04-06T09:11:04;16.20;99.90
36594;DHT22;22603;47.900;8.146;2023-04-06T09:13:53;16.40;99.90
36594;DHT22;22603;47.900;8.146;2023-04-06T09:16:42;16.10;99.90
36594;DHT22;22603;47.900;8.146;2023-04-06T09:19:29;16.20;99.90
36594;DHT22;22603;47.900;8.146;2023-04-06T09:22:18;15.50;99.90
36594;DHT22;22603;47.900;8.146;2023-04-06T09:25:06;15.60;99.90
36594;DHT22;22603;47.900;8.146;2023-04-06T09:28:00;16.10;99.90
36594;DHT22;22603;47.900;8.146;2023-04-06T09:30:49;15.50;99.90
36594;DHT22;22603;47.900;8.146;2023-04-06T09:33:38;14.60;99.90
36594;DHT22;22603;47.900;8.146;2023-04-06T09:36:33;15.80;99.90
36594;DHT22;22603;47.900;8.146;2023-04-06T09:39:21;16.50;99.90
36594;DHT22;22603;47.900;8.146;2023-04-06T09:42:09;15.90;99.90
36594;DHT22;22603;47.900;8.146;2023-04-06T09:44:56;16.30;99.90
36594;DHT22;22603;47.900;8.146;2023-04-06T09:47:45;16.30;99.90
36594;DHT22;22603;47.900;8.146;2023-04-06T09:50:36;16.50;99.90
36594;DHT22;22603;47.900;8.146;2023-04-06T09:53:26;16.40;99.90
36594;DHT22;22603;47.900;8.146;2023-04-06T09:56:17;16.50;99.90
36594;DHT22;22603;47.900;8.146;2023-04-06T09:59:11;16.30;99.90
36594;DHT22;22603;47.900;8.146;2023-04-06T10:02:00;16.40;99.90
36594;DHT22;22603;47.900;8.146;2023-04-06T10:04:53;17.00;99.90
36594;DHT22;22603;47.900;8.146;2023-04-06T10:07:43;16.90;99.90
36594;DHT22;22603;47.900;8.146;2023-04-06T10:10:45;16.90;99.90
36594;DHT22;22603;47.900;8.146;2023-04-06T10:13:35;17.30;99.90
36594;DHT22;22603;47.900;8.146;2023-04-06T10:16:22;16.90;99.90
36594;DHT22;22603;47.900;8.146;2023-04-06T10:19:14;16.70;99.90
36594;DHT22;22603;47.900;8.146;2023-04-06T10:22:05;16.80;99.90
36594;DHT22;22603;47.900;8.146;2023-04-06T10:24:53;16.60;99.90
36594;DHT22;22603;47.900;8.146;2023-04-06T10:27:40;16.20;99.90
36594;DHT22;22603;47.900;8.146;2023-04-06T10:30:28;16.20;99.90
36594;DHT22;22603;47.900;8.146;2023-04-06T10:33:16;15.30;99.90
36594;DHT22;22603;47.900;8.146;2023-04-06T10:36:11;15.80;99.90
36594;DHT22;22603;47.900;8.146;2023-04-06T10:39:00;16.30;99.90
36594;DHT22;22603;47.900;8.146;2023-04-06T10:41:48;16.10;99.90
36594;DHT22;22603;47.900;8.146;2023-04-06T10:44:42;15.70;99.90
36594;DHT22;22603;47.900;8.146;2023-04-06T10:47:39;15.80;99.90
36594;DHT22;22603;47.900;8.146;2023-04-06T10:50:29;15.60;99.90
36594;DHT22;22603;47.900;8.146;2023-04-06T10:53:21;15.70;99.90
36594;DHT22;22603;47.900;8.146;2023-04-06T10:56:12;15.30;99.90
36594;DHT22;22603;47.900;8.146;2023-04-06T10:58:59;15.20;99.90
36594;DHT22;22603;47.900;8.146;2023-04-06T11:01:47;15.10;99.90
36594;DHT22;22603;47.900;8.146;2023-04-06T11:04:34;14.70;99.90
36594;DHT22;22603;47.900;8.146;2023-04-06T11:07:25;14.80;99.90
36594;DHT22;22603;47.900;8.146;2023-04-06T11:10:21;15.20;99.90
36594;DHT22;22603;47.900;8.146;2023-04-06T11:13:09;15.00;99.90
36594;DHT22;22603;47.900;8.146;2023-04-06T11:15:56;15.10;99.90
36594;DHT22;22603;47.900;8.146;2023-04-06T11:18:51;15.20;99.90
36594;DHT22;22603;47.900;8.146;2023-04-06T11:21:46;14.80;99.90
36594;DHT22;22603;47.900;8.146;2023-04-06T11:24:33;15.50;99.90
36594;DHT22;22603;47.900;8.146;2023-04-06T11:27:21;15.30;99.90
36594;DHT22;22603;47.900;8.146;2023-04-06T11:30:10;15.00;99.90
36594;DHT22;22603;47.900;8.146;2023-04-06T11:33:01;15.20;99.90
36594;DHT22;22603;47.900;8.146;2023-04-06T11:35:49;15.70;99.90
36594;DHT22;22603;47.900;8.146;2023-04-06T11:38:39;15.60;99.90
36594;DHT22;22603;47.900;8.146;2023-04-06T11:41:27;15.00;99.90
36594;DHT22;22603;47.900;8.146;2023-04-06T11:44:15;15.30;99.90
36594;DHT22;22603;47.900;8.146;2023-04-06T11:47:05;16.00;99.90
36594;DHT22;22603;47.900;8.146;2023-04-06T11:49:53;16.00;99.90
36594;DHT22;22603;47.900;8.146;2023-04-06T11:52:41;16.10;99.90
36594;DHT22;22603;47.900;8.146;2023-04-06T11:55:28;14.70;99.90
36594;DHT22;22603;47.900;8.146;2023-04-06T11:58:17;14.90;99.90
36594;DHT22;22603;47.900;8.146;2023-04-06T12:01:04;15.20;99.90
36594;DHT22;22603;47.900;8.146;2023-04-06T12:03:53;15.70;99.90
36594;DHT22;22603;47.900;8.146;2023-04-06T12:06:41;15.70;99.90
36594;DHT22;22603;47.900;8.146;2023-04-06T12:09:30;15.60;99.90
36594;DHT22;22603;47.900;8.146;2023-04-06T12:12:17;15.90;99.90
36594;DHT22;22603;47.900;8.146;2023-04-06T12:15:06;14.70;99.90
36594;DHT22;22603;47.900;8.146;2023-04-06T12:17:53;15.20;99.90
36594;DHT22;22603;47.900;8.146;2023-04-06T12:20:42;15.10;99.90
36594;DHT22;22603;47.900;8.146;2023-04-06T12:23:31;14.70;99.90
36594;DHT22;22603;47.900;8.146;2023-04-06T12:26:19;14.90;99.90
36594;DHT22;22603;47.900;8.146;2023-04-06T12:29:07;15.10;99.90
36594;DHT22;22603;47.900;8.146;2023-04-06T12:31:55;15.40;99.90
36594;DHT22;22603;47.900;8.146;2023-04-06T12:34:45;15.10;99.90
36594;DHT22;22603;47.900;8.146;2023-04-06T12:37:34;14.70;99.90
36594;DHT22;22603;47.900;8.146;2023-04-06T12:40:22;14.40;99.90
36594;DHT22;22603;47.900;8.146;2023-04-06T12:43:09;14.10;99.90
36594;DHT22;22603;47.900;8.146;2023-04-06T12:45:56;14.10;99.90
36594;DHT22;22603;47.900;8.146;2023-04-06T12:48:43;14.20;99.90
36594;DHT22;22603;47.900;8.146;2023-04-06T12:51:31;14.00;99.90
36594;DHT22;22603;47.900;8.146;2023-04-06T12:54:19;14.10;99.90
36594;DHT22;22603;47.900;8.146;2023-04-06T12:57:07;13.90;99.90
36594;DHT22;22603;47.900;8.146;2023-04-06T12:59:54;13.80;99.90
36594;DHT22;22603;47.900;8.146;2023-04-06T13:02:42;13.30;99.90
36594;DHT22;22603;47.900;8.146;2023-04-06T13:05:32;13.40;99.90
36594;DHT22;22603;47.900;8.146;2023-04-06T13:08:20;13.60;99.90
36594;DHT22;22603;47.900;8.146;2023-04-06T13:11:08;13.70;99.90
36594;DHT22;22603;47.900;8.146;2023-04-06T13:13:55;13.70;99.90
36594;DHT22;22603;47.900;8.146;2023-04-06T13:16:42;13.40;99.90
36594;DHT22;22603;47.900;8.146;2023-04-06T13:19:29;12.90;99.90
36594;DHT22;22603;47.900;8.146;2023-04-06T13:22:17;13.00;99.90
36594;DHT22;22603;47.900;8.146;2023-04-06T13:25:07;13.00;99.90
36594;DHT22;22603;47.900;8.146;2023-04-06T13:27:57;12.80;99.90
36594;DHT22;22603;47.900;8.146;2023-04-06T13:30:48;12.90;99.90
36594;DHT22;22603;47.900;8.146;2023-04-06T13:33:35;13.00;99.90
36594;DHT22;22603;47.900;8.146;2023-04-06T13:36:22;13.20;99.90
36594;DHT22;22603;47.900;8.146;2023-04-06T13:39:10;13.00;99.90
36594;DHT22;22603;47.900;8.146;2023-04-06T13:41:58;12.70;99.90
36594;DHT22;22603;47.900;8.146;2023-04-06T13:44:49;12.60;99.90
36594;DHT22;22603;47.900;8.146;2023-04-06T13:47:36;12.50;99.90
36594;DHT22;22603;47.900;8.146;2023-04-06T13:50:25;12.10;99.90
36594;DHT22;22603;47.900;8.146;2023-04-06T13:53:13;12.50;99.90
36594;DHT22;22603;47.900;8.146;2023-04-06T13:56:00;12.50;99.90
36594;DHT22;22603;47.900;8.146;2023-04-06T13:58:47;12.50;99.90
36594;DHT22;22603;47.900;8.146;2023-04-06T14:01:37;12.60;99.90
36594;DHT22;22603;47.900;8.146;2023-04-06T14:04:24;12.80;99.90
36594;DHT22;22603;47.900;8.146;2023-04-06T14:07:11;12.60;99.90
36594;DHT22;22603;47.900;8.146;2023-04-06T14:09:58;12.60;99.90
36594;DHT22;22603;47.900;8.146;2023-04-06T14:12:45;12.50;99.90
36594;DHT22;22603;47.900;8.146;2023-04-06T14:15:32;12.30;99.90
36594;DHT22;22603;47.900;8.146;2023-04-06T14:18:21;12.30;99.90
36594;DHT22;22603;47.900;8.146;2023-04-06T14:21:08;12.20;99.90
36594;DHT22;22603;47.900;8.146;2023-04-06T14:23:55;12.30;99.90
36594;DHT22;22603;47.900;8.146;2023-04-06T14:26:44;12.20;99.90
36594;DHT22;22603;47.900;8.146;2023-04-06T14:29:31;12.00;99.90
36594;DHT22;22603;47.900;8.146;2023-04-06T14:32:19;12.00;99.90
36594;DHT22;22603;47.900;8.146;2023-04-06T14:35:09;11.70;99.90
36594;DHT22;22603;47.900;8.146;2023-04-06T14:37:56;11.60;99.90
36594;DHT22;22603;47.900;8.146;2023-04-06T14:40:43;11.70;99.90
36594;DHT22;22603;47.900;8.146;2023-04-06T14:43:30;11.40;99.90
36594;DHT22;22603;47.900;8.146;2023-04-06T14:46:18;11.60;99.90
36594;DHT22;22603;47.900;8.146;2023-04-06T14:49:05;11.70;99.90
36594;DHT22;22603;47.900;8.146;2023-04-06T14:51:54;11.60;99.90
36594;DHT22;22603;47.900;8.146;2023-04-06T14:54:42;11.90;99.90
36594;DHT22;22603;47.900;8.146;2023-04-06T14:57:29;11.90;99.90
36594;DHT22;22603;47.900;8.146;2023-04-06T15:00:20;11.40;99.90
36594;DHT22;22603;47.900;8.146;2023-04-06T15:03:07;11.30;99.90
36594;DHT22;22603;47.900;8.146;2023-04-06T15:05:56;11.30;99.90
36594;DHT22;22603;47.900;8.146;2023-04-06T15:08:45;11.40;99.90
36594;DHT22;22603;47.900;8.146;2023-04-06T15:11:32;11.10;99.90
36594;DHT22;22603;47.900;8.146;2023-04-06T15:14:22;11.00;99.90
36594;DHT22;22603;47.900;8.146;2023-04-06T15:17:09;10.70;99.90
36594;DHT22;22603;47.900;8.146;2023-04-06T15:19:56;10.90;99.90
36594;DHT22;22603;47.900;8.146;2023-04-06T15:22:44;10.80;99.90
36594;DHT22;22603;47.900;8.146;2023-04-06T15:25:32;10.70;99.90
36594;DHT22;22603;47.900;8.146;2023-04-06T15:28:19;10.80;99.90
36594;DHT22;22603;47.900;8.146;2023-04-06T15:31:13;10.70;99.90
36594;DHT22;22603;47.900;8.146;2023-04-06T15:34:20;10.70;99.90
36594;DHT22;22603;47.900;8.146;2023-04-06T15:37:07;10.60;99.90
36594;DHT22;22603;47.900;8.146;2023-04-06T15:39:55;10.50;99.90
36594;DHT22;22603;47.900;8.146;2023-04-06T15:42:46;10.40;99.90
36594;DHT22;22603;47.900;8.146;2023-04-06T15:45:33;10.40;99.90
36594;DHT22;22603;47.900;8.146;2023-04-06T15:48:21;10.30;99.90
36594;DHT22;22603;47.900;8.146;2023-04-06T15:51:10;10.30;99.90
36594;DHT22;22603;47.900;8.146;2023-04-06T15:53:57;10.30;99.90
36594;DHT22;22603;47.900;8.146;2023-04-06T15:56:44;10.40;99.90
36594;DHT22;22603;47.900;8.146;2023-04-06T15:59:32;10.30;99.90
36594;DHT22;22603;47.900;8.146;2023-04-06T16:02:19;10.40;99.90
36594;DHT22;22603;47.900;8.146;2023-04-06T16:05:09;10.10;99.90
36594;DHT22;22603;47.900;8.146;2023-04-06T16:07:56;10.30;99.90
36594;DHT22;22603;47.900;8.146;2023-04-06T16:10:43;10.20;99.90
36594;DHT22;22603;47.900;8.146;2023-04-06T16:13:32;10.10;99.90
36594;DHT22;22603;47.900;8.146;2023-04-06T16:16:21;10.00;99.90
36594;DHT22;22603;47.900;8.146;2023-04-06T16:19:08;10.00;99.90
36594;DHT22;22603;47.900;8.146;2023-04-06T16:21:55;9.80;99.90
36594;DHT22;22603;47.900;8.146;2023-04-06T16:24:42;9.60;99.90
36594;DHT22;22603;47.900;8.146;2023-04-06T16:27:29;9.50;99.90
36594;DHT22;22603;47.900;8.146;2023-04-06T16:30:17;9.50;99.90
36594;DHT22;22603;47.900;8.146;2023-04-06T16:33:05;9.30;99.90
36594;DHT22;22603;47.900;8.146;2023-04-06T16:35:53;9.20;99.90
36594;DHT22;22603;47.900;8.146;2023-04-06T16:38:43;9.10;99.90
36594;DHT22;22603;47.900;8.146;2023-04-06T16:41:31;9.00;99.90
36594;DHT22;22603;47.900;8.146;2023-04-06T16:44:18;8.90;99.90
36594;DHT22;22603;47.900;8.146;2023-04-06T16:47:05;8.70;99.90
36594;DHT22;22603;47.900;8.146;2023-04-06T16:49:54;8.60;99.90
36594;DHT22;22603;47.900;8.146;2023-04-06T16:52:50;8.30;99.90
36594;DHT22;22603;47.900;8.146;2023-04-06T16:55:38;8.20;99.90
36594;DHT22;22603;47.900;8.146;2023-04-06T16:58:26;8.10;99.90
36594;DHT22;22603;47.900;8.146;2023-04-06T17:01:20;8.00;99.90
36594;DHT22;22603;47.900;8.146;2023-04-06T17:04:07;7.80;99.90
36594;DHT22;22603;47.900;8.146;2023-04-06T17:06:56;7.70;99.90
36594;DHT22;22603;47.900;8.146;2023-04-06T17:09:43;7.60;99.90
36594;DHT22;22603;47.900;8.146;2023-04-06T17:12:30;7.60;99.90
36594;DHT22;22603;47.900;8.146;2023-04-06T17:15:17;7.50;99.90
36594;DHT22;22603;47.900;8.146;2023-04-06T17:18:04;7.50;99.90
36594;DHT22;22603;47.900;8.146;2023-04-06T17:20:51;7.50;99.90
36594;DHT22;22603;47.900;8.146;2023-04-06T17:23:40;7.30;99.90
36594;DHT22;22603;47.900;8.146;2023-04-06T17:26:27;7.00;99.90
36594;DHT22;22603;47.900;8.146;2023-04-06T17:29:14;6.90;99.90
36594;DHT22;22603;47.900;8.146;2023-04-06T17:32:01;6.70;99.90
36594;DHT22;22603;47.900;8.146;2023-04-06T17:34:48;6.60;99.90
36594;DHT22;22603;47.900;8.146;2023-04-06T17:37:35;6.60;99.90
36594;DHT22;22603;47.900;8.146;2023-04-06T17:40:23;6.60;99.90
36594;DHT22;22603;47.900;8.146;2023-04-06T17:43:10;6.50;99.90